St. Louis Express — WDD3825 — position and weather

sailwx.info

Track history (hours):
 
Tides and Currents Weather Stations Pressure Air Temp Water Temp Dewpoint Dewpoint Depression Visibility Wind Speed Wind Dir Waves Ship Positions

St. Louis Express

Owner: Marine Transport Management, Inc (Nick Orfanidis), Jacksonville, FL. More information available from US FCC via Universal Licensing System.

Last reported at 2018-Jun-21 09:00 UTC. Time now 2018-Jun-21 16:18 UTC.
Position N 39°24' W 056°30'.

Type: Cargo ship. MMSI: 367136680.

Wind from 080 at 9 knots

Barometer 1011.0 mb
Air temperature 21.0 ° C
Visibility: greater than 10.8 NM
Dewpoint 16.1 ° C
Water temperature 26.0 ° C

Date/timePositionNaut miles runAvg speedWind from/ knotsBaromVisibWave heightAir tempDewpointWater temp
2018-Jun-21 09:00N 39°24' W 056°30'91720.9 080 / 91011.010.8 21.016.126.0
2018-Jun-19 13:08N 36°48' W 075°38'320.1
2018-Jun-19 12:57N 36°48' W 075°42'1916.5
2018-Jun-19 11:49N 36°58' W 076°03'714.9
2018-Jun-19 11:19N 36°60' W 076°12'514.7
2018-Jun-19 11:00N 36°60' W 076°18'4 8.8
2018-Jun-19 10:29N 36°56' W 076°20'0 0.2
2018-Jun-19 09:59N 36°55' W 076°20'0 0.0
2018-Jun-19 09:29N 36°55' W 076°20'0 0.0
2018-Jun-19 08:59N 36°55' W 076°20'0 0.0
2018-Jun-19 08:26N 36°55' W 076°20'0 0.0
2018-Jun-19 07:59N 36°55' W 076°20'0 0.0
2018-Jun-19 07:29N 36°55' W 076°20'0 0.0
2018-Jun-19 06:53N 36°55' W 076°20'0 0.0
2018-Jun-19 06:29N 36°55' W 076°20'0 0.0
2018-Jun-19 05:56N 36°55' W 076°20'0 0.0
2018-Jun-19 05:26N 36°55' W 076°20'0 0.0
2018-Jun-19 04:59N 36°55' W 076°20'0 0.0
2018-Jun-19 04:29N 36°55' W 076°20'0 0.0
2018-Jun-19 03:59N 36°55' W 076°20'0 0.0
2018-Jun-19 03:30N 36°55' W 076°20'0 0.0
2018-Jun-19 02:59N 36°55' W 076°20'0 0.0
2018-Jun-19 02:29N 36°55' W 076°20'0 0.0
2018-Jun-19 01:56N 36°55' W 076°20'0 0.0
2018-Jun-19 01:29N 36°55' W 076°20'0 0.0
2018-Jun-19 00:59N 36°55' W 076°20'0 0.0
2018-Jun-19 00:29N 36°55' W 076°20'0 0.0
2018-Jun-18 23:59N 36°55' W 076°20'0 0.0
2018-Jun-18 23:29N 36°55' W 076°20'0 0.0
2018-Jun-18 22:59N 36°55' W 076°20'0 0.0
2018-Jun-18 22:29N 36°55' W 076°20'0 0.0
2018-Jun-18 21:59N 36°55' W 076°20'0 0.0
2018-Jun-18 21:30N 36°55' W 076°20'0 0.0
2018-Jun-18 20:59N 36°55' W 076°20'0 0.0
2018-Jun-18 20:29N 36°55' W 076°20'0 0.0
2018-Jun-18 19:59N 36°55' W 076°20'0 0.0
2018-Jun-18 19:29N 36°55' W 076°20'0 0.0
2018-Jun-18 19:00N 36°55' W 076°20'0 0.9
2018-Jun-18 18:30N 36°56' W 076°20'17814.3
2018-Jun-18 06:02N 33°58' W 076°34'220.7
2018-Jun-18 05:56N 33°57' W 076°36'920.6
2018-Jun-18 05:28N 33°50' W 076°44'1320.8
2018-Jun-18 04:51N 33°41' W 076°55'20420.3
2018-Jun-17 18:47N 31°57' W 080°24'620.0
2018-Jun-17 18:29N 31°55' W 080°31'817.1
2018-Jun-17 18:00N 31°57' W 080°40'714.4
2018-Jun-17 17:30N 32°00' W 080°48'612.2
2018-Jun-17 16:59N 32°02' W 080°55'5 9.7
2018-Jun-17 16:30N 32°05' W 080°59'3 6.7
2018-Jun-17 16:00N 32°05' W 081°03'3 5.4
2018-Jun-17 15:30N 32°06' W 081°06'3 6.1
2018-Jun-17 15:00N 32°08' W 081°08'1 1.6
2018-Jun-17 14:28N 32°07' W 081°08'0 0.0
2018-Jun-17 13:58N 32°07' W 081°08'0 0.0
2018-Jun-17 13:25N 32°07' W 081°08'0 0.0
2018-Jun-17 12:58N 32°07' W 081°08'0 0.0
2018-Jun-17 12:28N 32°07' W 081°08'0 0.0
2018-Jun-17 11:55N 32°07' W 081°08'0 0.0
2018-Jun-17 11:28N 32°07' W 081°08'0 0.0
2018-Jun-17 10:55N 32°07' W 081°08'0 0.0
2018-Jun-17 10:22N 32°07' W 081°08'0 0.0
2018-Jun-17 09:58N 32°07' W 081°08'0 0.0
2018-Jun-17 09:28N 32°07' W 081°08'0 0.0
2018-Jun-17 08:55N 32°07' W 081°08'0 0.0
2018-Jun-17 08:28N 32°07' W 081°08'0 0.0
2018-Jun-17 07:40N 32°07' W 081°08'0 0.0
2018-Jun-17 07:22N 32°07' W 081°08'0 0.0
2018-Jun-17 06:58N 32°07' W 081°08'0 0.0
2018-Jun-17 06:25N 32°07' W 081°08'0 0.0
2018-Jun-17 05:58N 32°07' W 081°08'0 0.0
2018-Jun-17 05:25N 32°07' W 081°08'0 0.0
2018-Jun-17 04:58N 32°07' W 081°08'0 0.0
2018-Jun-17 04:25N 32°07' W 081°08'0 0.0
2018-Jun-17 03:58N 32°07' W 081°08'0 0.0
2018-Jun-17 03:19N 32°07' W 081°08'0 0.0
2018-Jun-17 02:46N 32°07' W 081°08'0 0.0
2018-Jun-17 02:28N 32°07' W 081°08'0 0.0
2018-Jun-17 01:46N 32°07' W 081°08'0 0.0
2018-Jun-17 01:25N 32°07' W 081°08'0 0.0
2018-Jun-16 23:25N 32°07' W 081°08'0 0.0
2018-Jun-16 22:55N 32°07' W 081°08'2 3.8
2018-Jun-16 22:30N 32°06' W 081°07'3 5.6
2018-Jun-16 22:00N 32°05' W 081°04'4 6.7
2018-Jun-16 21:28N 32°06' W 080°60'4 8.2
2018-Jun-16 21:00N 32°03' W 080°56'5 8.8
2018-Jun-16 20:29N 32°02' W 080°51'714.2
2018-Jun-16 20:00N 31°58' W 080°44'611.7
2018-Jun-16 19:30N 31°55' W 080°39'27921.1
2018-Jun-16 06:15N 27°20' W 079°43'724.1
2018-Jun-16 05:56N 27°12' W 079°43'1024.2
2018-Jun-16 05:30N 27°02' W 079°44'1224.0
2018-Jun-16 05:00N 26°50' W 079°45'1223.7
2018-Jun-16 04:30N 26°38' W 079°46'1223.6
2018-Jun-16 04:00N 26°26' W 079°48'1223.8
2018-Jun-16 03:30N 26°15' W 079°49'1224.1
2018-Jun-16 03:01N 26°03' W 079°51'1224.2
2018-Jun-16 02:31N 25°51' W 079°53'1223.7
2018-Jun-16 02:00N 25°39' W 079°54'1223.8
2018-Jun-16 01:31N 25°27' W 079°56'1224.0
2018-Jun-16 01:01N 25°16' W 080°00'80118.7
2018-Jun-14 06:13N 28°57' W 094°25'418.6
2018-Jun-14 05:59N 29°01' W 094°26'917.8
2018-Jun-14 05:30N 29°09' W 094°28'815.5
2018-Jun-14 05:00N 29°15' W 094°34'612.4
2018-Jun-14 04:30N 29°19' W 094°39'714.0
2018-Jun-14 04:00N 29°21' W 094°47'715.0
2018-Jun-14 03:30N 29°28' W 094°51'815.0
2018-Jun-14 03:00N 29°34' W 094°55'613.0
2018-Jun-14 02:30N 29°40' W 094°58'2 3.4
2018-Jun-14 02:00N 29°41' W 095°00'0 0.0
2018-Jun-14 01:30N 29°41' W 095°00'0 0.0
2018-Jun-14 00:58N 29°41' W 095°00'0 0.0
2018-Jun-14 00:28N 29°41' W 095°00'0 0.0
2018-Jun-13 23:55N 29°41' W 095°00'0 0.0
2018-Jun-13 23:28N 29°41' W 095°00'0 0.0
2018-Jun-13 22:58N 29°41' W 095°00'0 0.0
2018-Jun-13 22:28N 29°41' W 095°00'0 0.0
2018-Jun-13 21:58N 29°41' W 095°00'0 0.0
2018-Jun-13 21:28N 29°41' W 095°00'0 0.0
2018-Jun-13 20:58N 29°41' W 095°00'0 0.0
2018-Jun-13 20:28N 29°41' W 095°00'0 0.0
2018-Jun-13 19:58N 29°41' W 095°00'0 0.0
2018-Jun-13 19:28N 29°41' W 095°00'0 0.0
2018-Jun-13 18:58N 29°41' W 095°00'0 0.0
2018-Jun-13 18:28N 29°41' W 095°00'0 0.0
2018-Jun-13 17:58N 29°41' W 095°00'0 0.0
2018-Jun-13 17:28N 29°41' W 095°00'0 0.0
2018-Jun-13 16:58N 29°41' W 095°00'0 0.0
2018-Jun-13 16:28N 29°41' W 095°00'0 0.0
2018-Jun-13 15:55N 29°41' W 095°00'0 0.0
2018-Jun-13 15:28N 29°41' W 095°00'0 0.0
2018-Jun-13 14:55N 29°41' W 095°00'0 0.0
2018-Jun-13 14:28N 29°41' W 095°00'0 0.0
2018-Jun-13 13:58N 29°41' W 095°00'0 0.0
2018-Jun-13 13:28N 29°41' W 095°00'0 0.0
2018-Jun-13 12:58N 29°41' W 095°00'0 0.0
2018-Jun-13 12:28N 29°41' W 095°00'0 0.0
2018-Jun-13 11:58N 29°41' W 095°00'0 0.0
2018-Jun-13 11:28N 29°41' W 095°00'0 0.0
2018-Jun-13 10:55N 29°41' W 095°00'0 0.0
2018-Jun-13 10:28N 29°41' W 095°00'0 0.0
2018-Jun-13 09:58N 29°41' W 095°00'0 0.0
2018-Jun-13 09:28N 29°41' W 095°00'0 0.0
2018-Jun-13 08:58N 29°41' W 095°00'0 0.0
2018-Jun-13 08:28N 29°41' W 095°00'0 0.0
2018-Jun-13 07:58N 29°41' W 095°00'0 0.0
2018-Jun-13 07:28N 29°41' W 095°00'0 0.0
2018-Jun-13 06:58N 29°41' W 095°00'0 0.0
2018-Jun-13 06:28N 29°41' W 095°00'0 0.0
2018-Jun-13 05:58N 29°41' W 095°00'0 0.0
2018-Jun-13 05:28N 29°41' W 095°00'0 0.0
2018-Jun-13 04:58N 29°41' W 095°00'0 0.0
2018-Jun-13 04:28N 29°41' W 095°00'0 0.0
2018-Jun-13 03:58N 29°41' W 095°00'0 0.0
2018-Jun-13 03:28N 29°41' W 095°00'0 0.0
2018-Jun-13 02:58N 29°41' W 095°00'0 0.0
2018-Jun-13 02:28N 29°41' W 095°00'0 0.0
2018-Jun-13 01:58N 29°41' W 095°00'0 0.0
2018-Jun-13 01:28N 29°41' W 095°00'0 0.0
2018-Jun-13 00:58N 29°41' W 095°00'0 0.0
2018-Jun-13 00:28N 29°41' W 095°00'0 0.0
2018-Jun-12 23:58N 29°41' W 095°00'0 0.0
2018-Jun-12 23:28N 29°41' W 095°00'0 0.0
2018-Jun-12 22:55N 29°41' W 095°00'0 0.0
2018-Jun-12 22:29N 29°41' W 095°00'0 0.4
2018-Jun-12 22:00N 29°41' W 094°60'2 3.9
2018-Jun-12 21:30N 29°40' W 094°58'611.4
2018-Jun-12 21:00N 29°34' W 094°56'713.0
2018-Jun-12 20:29N 29°29' W 094°51'713.0
2018-Jun-12 19:57N 29°22' W 094°48'511.8
2018-Jun-12 19:30N 29°21' W 094°42'713.6
2018-Jun-12 19:00N 29°18' W 094°35'3 6.8
2018-Jun-12 18:30N 29°17' W 094°31'0 0.1
2018-Jun-12 17:37N 29°17' W 094°31'0 0.0
2018-Jun-12 17:16N 29°17' W 094°31'0 0.0
2018-Jun-12 16:52N 29°17' W 094°31'0 0.0
2018-Jun-12 16:28N 29°17' W 094°31'0 0.0
2018-Jun-12 15:46N 29°17' W 094°31'0 0.0
2018-Jun-12 15:16N 29°17' W 094°31'0 0.0
2018-Jun-12 14:58N 29°17' W 094°31'0 0.0
2018-Jun-12 14:19N 29°17' W 094°31'0 0.0
2018-Jun-12 12:28N 29°17' W 094°31'0 0.1
2018-Jun-12 11:58N 29°17' W 094°31'1 2.2
2018-Jun-12 11:29N 29°16' W 094°31'1712.9
2018-Jun-12 10:12N 29°06' W 094°16'414.3
2018-Jun-12 09:56N 29°04' W 094°13'2018.9
2018-Jun-12 08:52N 28°51' W 093°54'919.2
2018-Jun-12 08:24N 28°46' W 093°46'819.0
2018-Jun-12 07:58N 28°41' W 093°38'1219.4
2018-Jun-12 07:20N 28°34' W 093°27'  
Track history (hours):
 
Tides and Currents Weather Stations Pressure Air Temp Water Temp Dewpoint Dewpoint Depression Visibility Wind Speed Wind Dir Waves Ship Positions

St. Louis Express

Owner: Marine Transport Management, Inc (Nick Orfanidis), Jacksonville, FL. More information available from US FCC via Universal Licensing System.

Last reported at 2018-Jun-21 09:00 UTC. Time now 2018-Jun-21 16:18 UTC.
Position N 39°24' W 056°30'.

Type: Cargo ship. MMSI: 367136680.

Wind from 080 at 9 knots

Barometer 1011.0 mb
Air temperature 21.0 ° C
Visibility: greater than 10.8 NM
Dewpoint 16.1 ° C
Water temperature 26.0 ° C

Date/timePositionNaut miles runAvg speedWind from/ knotsBaromVisibWave heightAir tempDewpointWater temp
2018-Jun-21 09:00N 39°24' W 056°30'91720.9 080 / 91011.010.8 21.016.126.0
2018-Jun-19 13:08N 36°48' W 075°38'320.1
2018-Jun-19 12:57N 36°48' W 075°42'1916.5
2018-Jun-19 11:49N 36°58' W 076°03'714.9
2018-Jun-19 11:19N 36°60' W 076°12'514.7
2018-Jun-19 11:00N 36°60' W 076°18'4 8.8
2018-Jun-19 10:29N 36°56' W 076°20'0 0.2
2018-Jun-19 09:59N 36°55' W 076°20'0 0.0
2018-Jun-19 09:29N 36°55' W 076°20'0 0.0
2018-Jun-19 08:59N 36°55' W 076°20'0 0.0
2018-Jun-19 08:26N 36°55' W 076°20'0 0.0
2018-Jun-19 07:59N 36°55' W 076°20'0 0.0
2018-Jun-19 07:29N 36°55' W 076°20'0 0.0
2018-Jun-19 06:53N 36°55' W 076°20'0 0.0
2018-Jun-19 06:29N 36°55' W 076°20'0 0.0
2018-Jun-19 05:56N 36°55' W 076°20'0 0.0
2018-Jun-19 05:26N 36°55' W 076°20'0 0.0
2018-Jun-19 04:59N 36°55' W 076°20'0 0.0
2018-Jun-19 04:29N 36°55' W 076°20'0 0.0
2018-Jun-19 03:59N 36°55' W 076°20'0 0.0
2018-Jun-19 03:30N 36°55' W 076°20'0 0.0
2018-Jun-19 02:59N 36°55' W 076°20'0 0.0
2018-Jun-19 02:29N 36°55' W 076°20'0 0.0
2018-Jun-19 01:56N 36°55' W 076°20'0 0.0
2018-Jun-19 01:29N 36°55' W 076°20'0 0.0
2018-Jun-19 00:59N 36°55' W 076°20'0 0.0
2018-Jun-19 00:29N 36°55' W 076°20'0 0.0
2018-Jun-18 23:59N 36°55' W 076°20'0 0.0
2018-Jun-18 23:29N 36°55' W 076°20'0 0.0
2018-Jun-18 22:59N 36°55' W 076°20'0 0.0
2018-Jun-18 22:29N 36°55' W 076°20'0 0.0
2018-Jun-18 21:59N 36°55' W 076°20'0 0.0
2018-Jun-18 21:30N 36°55' W 076°20'0 0.0
2018-Jun-18 20:59N 36°55' W 076°20'0 0.0
2018-Jun-18 20:29N 36°55' W 076°20'0 0.0
2018-Jun-18 19:59N 36°55' W 076°20'0 0.0
2018-Jun-18 19:29N 36°55' W 076°20'0 0.0
2018-Jun-18 19:00N 36°55' W 076°20'0 0.9
2018-Jun-18 18:30N 36°56' W 076°20'17814.3
2018-Jun-18 06:02N 33°58' W 076°34'220.7
2018-Jun-18 05:56N 33°57' W 076°36'920.6
2018-Jun-18 05:28N 33°50' W 076°44'1320.8
2018-Jun-18 04:51N 33°41' W 076°55'20420.3
2018-Jun-17 18:47N 31°57' W 080°24'620.0
2018-Jun-17 18:29N 31°55' W 080°31'817.1
2018-Jun-17 18:00N 31°57' W 080°40'714.4
2018-Jun-17 17:30N 32°00' W 080°48'612.2
2018-Jun-17 16:59N 32°02' W 080°55'5 9.7
2018-Jun-17 16:30N 32°05' W 080°59'3 6.7
2018-Jun-17 16:00N 32°05' W 081°03'3 5.4
2018-Jun-17 15:30N 32°06' W 081°06'3 6.1
2018-Jun-17 15:00N 32°08' W 081°08'1 1.6
2018-Jun-17 14:28N 32°07' W 081°08'0 0.0
2018-Jun-17 13:58N 32°07' W 081°08'0 0.0
2018-Jun-17 13:25N 32°07' W 081°08'0 0.0
2018-Jun-17 12:58N 32°07' W 081°08'0 0.0
2018-Jun-17 12:28N 32°07' W 081°08'0 0.0
2018-Jun-17 11:55N 32°07' W 081°08'0 0.0
2018-Jun-17 11:28N 32°07' W 081°08'0 0.0
2018-Jun-17 10:55N 32°07' W 081°08'0 0.0
2018-Jun-17 10:22N 32°07' W 081°08'0 0.0
2018-Jun-17 09:58N 32°07' W 081°08'0 0.0
2018-Jun-17 09:28N 32°07' W 081°08'0 0.0
2018-Jun-17 08:55N 32°07' W 081°08'0 0.0
2018-Jun-17 08:28N 32°07' W 081°08'0 0.0
2018-Jun-17 07:40N 32°07' W 081°08'0 0.0
2018-Jun-17 07:22N 32°07' W 081°08'0 0.0
2018-Jun-17 06:58N 32°07' W 081°08'0 0.0
2018-Jun-17 06:25N 32°07' W 081°08'0 0.0
2018-Jun-17 05:58N 32°07' W 081°08'0 0.0
2018-Jun-17 05:25N 32°07' W 081°08'0 0.0
2018-Jun-17 04:58N 32°07' W 081°08'0 0.0
2018-Jun-17 04:25N 32°07' W 081°08'0 0.0
2018-Jun-17 03:58N 32°07' W 081°08'0 0.0
2018-Jun-17 03:19N 32°07' W 081°08'0 0.0
2018-Jun-17 02:46N 32°07' W 081°08'0 0.0
2018-Jun-17 02:28N 32°07' W 081°08'0 0.0
2018-Jun-17 01:46N 32°07' W 081°08'0 0.0
2018-Jun-17 01:25N 32°07' W 081°08'0 0.0
2018-Jun-16 23:25N 32°07' W 081°08'0 0.0
2018-Jun-16 22:55N 32°07' W 081°08'2 3.8
2018-Jun-16 22:30N 32°06' W 081°07'3 5.6
2018-Jun-16 22:00N 32°05' W 081°04'4 6.7
2018-Jun-16 21:28N 32°06' W 080°60'4 8.2
2018-Jun-16 21:00N 32°03' W 080°56'5 8.8
2018-Jun-16 20:29N 32°02' W 080°51'714.2
2018-Jun-16 20:00N 31°58' W 080°44'611.7
2018-Jun-16 19:30N 31°55' W 080°39'27921.1
2018-Jun-16 06:15N 27°20' W 079°43'724.1
2018-Jun-16 05:56N 27°12' W 079°43'1024.2
2018-Jun-16 05:30N 27°02' W 079°44'1224.0
2018-Jun-16 05:00N 26°50' W 079°45'1223.7
2018-Jun-16 04:30N 26°38' W 079°46'1223.6
2018-Jun-16 04:00N 26°26' W 079°48'1223.8
2018-Jun-16 03:30N 26°15' W 079°49'1224.1
2018-Jun-16 03:01N 26°03' W 079°51'1224.2
2018-Jun-16 02:31N 25°51' W 079°53'1223.7
2018-Jun-16 02:00N 25°39' W 079°54'1223.8
2018-Jun-16 01:31N 25°27' W 079°56'1224.0
2018-Jun-16 01:01N 25°16' W 080°00'80118.7
2018-Jun-14 06:13N 28°57' W 094°25'418.6
2018-Jun-14 05:59N 29°01' W 094°26'917.8
2018-Jun-14 05:30N 29°09' W 094°28'815.5
2018-Jun-14 05:00N 29°15' W 094°34'612.4
2018-Jun-14 04:30N 29°19' W 094°39'714.0
2018-Jun-14 04:00N 29°21' W 094°47'715.0
2018-Jun-14 03:30N 29°28' W 094°51'815.0
2018-Jun-14 03:00N 29°34' W 094°55'613.0
2018-Jun-14 02:30N 29°40' W 094°58'2 3.4
2018-Jun-14 02:00N 29°41' W 095°00'0 0.0
2018-Jun-14 01:30N 29°41' W 095°00'0 0.0
2018-Jun-14 00:58N 29°41' W 095°00'0 0.0
2018-Jun-14 00:28N 29°41' W 095°00'0 0.0
2018-Jun-13 23:55N 29°41' W 095°00'0 0.0
2018-Jun-13 23:28N 29°41' W 095°00'0 0.0
2018-Jun-13 22:58N 29°41' W 095°00'0 0.0
2018-Jun-13 22:28N 29°41' W 095°00'0 0.0
2018-Jun-13 21:58N 29°41' W 095°00'0 0.0
2018-Jun-13 21:28N 29°41' W 095°00'0 0.0
2018-Jun-13 20:58N 29°41' W 095°00'0 0.0
2018-Jun-13 20:28N 29°41' W 095°00'0 0.0
2018-Jun-13 19:58N 29°41' W 095°00'0 0.0
2018-Jun-13 19:28N 29°41' W 095°00'0 0.0
2018-Jun-13 18:58N 29°41' W 095°00'0 0.0
2018-Jun-13 18:28N 29°41' W 095°00'0 0.0
2018-Jun-13 17:58N 29°41' W 095°00'0 0.0
2018-Jun-13 17:28N 29°41' W 095°00'0 0.0
2018-Jun-13 16:58N 29°41' W 095°00'0 0.0
2018-Jun-13 16:28N 29°41' W 095°00'0 0.0
2018-Jun-13 15:55N 29°41' W 095°00'0 0.0
2018-Jun-13 15:28N 29°41' W 095°00'0 0.0
2018-Jun-13 14:55N 29°41' W 095°00'0 0.0
2018-Jun-13 14:28N 29°41' W 095°00'0 0.0
2018-Jun-13 13:58N 29°41' W 095°00'0 0.0
2018-Jun-13 13:28N 29°41' W 095°00'0 0.0
2018-Jun-13 12:58N 29°41' W 095°00'0 0.0
2018-Jun-13 12:28N 29°41' W 095°00'0 0.0
2018-Jun-13 11:58N 29°41' W 095°00'0 0.0
2018-Jun-13 11:28N 29°41' W 095°00'0 0.0
2018-Jun-13 10:55N 29°41' W 095°00'0 0.0
2018-Jun-13 10:28N 29°41' W 095°00'0 0.0
2018-Jun-13 09:58N 29°41' W 095°00'0 0.0
2018-Jun-13 09:28N 29°41' W 095°00'0 0.0
2018-Jun-13 08:58N 29°41' W 095°00'0 0.0
2018-Jun-13 08:28N 29°41' W 095°00'0 0.0
2018-Jun-13 07:58N 29°41' W 095°00'0 0.0
2018-Jun-13 07:28N 29°41' W 095°00'0 0.0
2018-Jun-13 06:58N 29°41' W 095°00'0 0.0
2018-Jun-13 06:28N 29°41' W 095°00'0 0.0
2018-Jun-13 05:58N 29°41' W 095°00'0 0.0
2018-Jun-13 05:28N 29°41' W 095°00'0 0.0
2018-Jun-13 04:58N 29°41' W 095°00'0 0.0
2018-Jun-13 04:28N 29°41' W 095°00'0 0.0
2018-Jun-13 03:58N 29°41' W 095°00'0 0.0
2018-Jun-13 03:28N 29°41' W 095°00'0 0.0
2018-Jun-13 02:58N 29°41' W 095°00'0 0.0
2018-Jun-13 02:28N 29°41' W 095°00'0 0.0
2018-Jun-13 01:58N 29°41' W 095°00'0 0.0
2018-Jun-13 01:28N 29°41' W 095°00'0 0.0
2018-Jun-13 00:58N 29°41' W 095°00'0 0.0
2018-Jun-13 00:28N 29°41' W 095°00'0 0.0
2018-Jun-12 23:58N 29°41' W 095°00'0 0.0
2018-Jun-12 23:28N 29°41' W 095°00'0 0.0
2018-Jun-12 22:55N 29°41' W 095°00'0 0.0
2018-Jun-12 22:29N 29°41' W 095°00'0 0.4
2018-Jun-12 22:00N 29°41' W 094°60'2 3.9
2018-Jun-12 21:30N 29°40' W 094°58'611.4
2018-Jun-12 21:00N 29°34' W 094°56'713.0
2018-Jun-12 20:29N 29°29' W 094°51'713.0
2018-Jun-12 19:57N 29°22' W 094°48'511.8
2018-Jun-12 19:30N 29°21' W 094°42'713.6
2018-Jun-12 19:00N 29°18' W 094°35'3 6.8
2018-Jun-12 18:30N 29°17' W 094°31'0 0.1
2018-Jun-12 17:37N 29°17' W 094°31'0 0.0
2018-Jun-12 17:16N 29°17' W 094°31'0 0.0
2018-Jun-12 16:52N 29°17' W 094°31'0 0.0
2018-Jun-12 16:28N 29°17' W 094°31'0 0.0
2018-Jun-12 15:46N 29°17' W 094°31'0 0.0
2018-Jun-12 15:16N 29°17' W 094°31'0 0.0
2018-Jun-12 14:58N 29°17' W 094°31'0 0.0
2018-Jun-12 14:19N 29°17' W 094°31'0 0.0
2018-Jun-12 12:28N 29°17' W 094°31'0 0.1
2018-Jun-12 11:58N 29°17' W 094°31'1 2.2
2018-Jun-12 11:29N 29°16' W 094°31'1712.9
2018-Jun-12 10:12N 29°06' W 094°16'414.3
2018-Jun-12 09:56N 29°04' W 094°13'2018.9
2018-Jun-12 08:52N 28°51' W 093°54'919.2
2018-Jun-12 08:24N 28°46' W 093°46'819.0
2018-Jun-12 07:58N 28°41' W 093°38'1219.4
2018-Jun-12 07:20N 28°34' W 093°27'  

Dump ship's entire track history